Time;durP1;ratioP1;P1;durP2;ratioP2;P2;SDS_P1;SDS_P2;PMS_P1;PMS_P2;Temp;Humidity;BMP_temperature;BMP_pressure;BME280_temperature;BME280_humidity;BME280_pressure;Samples;Min_cycle;Max_cycle;Signal;HPM_P1;HPM_P2
2023/03/09 00:02:09;;;;;;;3.08;1.13;;;9.30;99.90;;;8.81;100.00;94820.56;4977755;28;20239;-40
2023/03/09 00:04:36;;;;;;;2.55;1.20;;;9.30;99.90;;;8.81;100.00;94805.66;4971652;28;20042;-40
2023/03/09 00:07:02;;;;;;;2.38;1.33;;;9.30;99.90;;;8.79;100.00;94805.75;4977384;28;20123;-40
2023/03/09 00:09:28;;;;;;;4.57;1.17;;;9.30;99.90;;;8.82;100.00;94814.38;4979986;28;20034;-40
2023/03/09 00:11:54;;;;;;;5.25;1.20;;;9.40;99.90;;;8.84;100.00;94815.94;4978365;28;20042;-40
2023/03/09 00:14:24;;;;;;;5.50;1.50;;;9.30;99.90;;;8.87;100.00;94833.28;4982034;28;20030;-40
2023/03/09 00:16:50;;;;;;;3.95;1.33;;;9.40;99.90;;;9.01;100.00;94856.78;4977338;28;20077;-40
2023/03/09 00:19:26;;;;;;;5.20;1.40;;;9.40;99.90;;;8.93;100.00;94859.13;4983519;28;20048;-40
2023/03/09 00:21:56;;;;;;;4.47;1.55;;;9.40;99.90;;;8.91;100.00;94868.91;4986581;28;20069;-40
2023/03/09 00:24:28;;;;;;;5.85;1.23;;;9.40;99.90;;;9.00;100.00;94884.03;4986911;28;20060;-41
2023/03/09 00:27:00;;;;;;;6.00;1.33;;;9.40;99.90;;;8.92;100.00;94897.72;4979054;28;20064;-40
2023/03/09 00:29:29;;;;;;;3.92;1.10;;;9.40;99.90;;;9.00;100.00;94914.72;4991447;28;20068;-40
2023/03/09 00:31:56;;;;;;;4.18;0.93;;;9.40;99.90;;;9.05;100.00;94894.22;4987949;28;20149;-40
2023/03/09 00:34:22;;;;;;;2.95;0.82;;;9.50;99.90;;;9.06;100.00;94893.25;4987978;28;20041;-41
2023/03/09 00:36:48;;;;;;;2.50;0.88;;;9.50;99.90;;;9.05;100.00;94916.09;4989488;28;20042;-40
2023/03/09 00:39:16;;;;;;;5.18;1.10;;;9.50;99.90;;;8.98;100.00;94927.97;4991787;28;20037;-40
2023/03/09 00:41:42;;;;;;;3.17;1.13;;;9.40;99.90;;;8.94;100.00;94937.88;4989793;28;20048;-40
2023/03/09 00:44:09;;;;;;;1.92;0.88;;;9.40;99.90;;;8.95;100.00;94951.84;4991514;28;20473;-40
2023/03/09 00:46:35;;;;;;;2.78;1.27;;;9.40;99.90;;;8.90;100.00;94946.91;4993035;28;20042;-40
2023/03/09 00:49:03;;;;;;;2.05;0.70;;;9.40;99.90;;;8.88;100.00;94953.22;4969344;28;20522;-40
2023/03/09 00:51:29;;;;;;;4.63;0.95;;;9.40;99.90;;;8.84;100.00;94941.25;4978535;28;20041;-40
2023/03/09 00:53:56;;;;;;;1.30;0.60;;;9.30;99.90;;;8.81;100.00;94941.44;4979407;28;20782;-40
2023/03/09 00:56:27;;;;;;;1.05;0.50;;;9.30;99.90;;;8.84;100.00;94935.97;4975689;28;20069;-41
2023/03/09 00:58:54;;;;;;;1.50;0.70;;;9.30;99.90;;;8.84;100.00;94942.06;4976474;28;20052;-40
2023/03/09 01:01:20;;;;;;;4.25;0.50;;;9.30;99.90;;;8.79;100.00;94934.53;4979331;28;20053;-40
2023/03/09 01:03:46;;;;;;;0.82;0.47;;;9.20;99.90;;;8.82;100.00;94940.50;4977750;28;20080;-40
2023/03/09 01:06:13;;;;;;;1.63;0.43;;;9.20;99.90;;;8.79;100.00;94952.06;4978947;28;20569;-40
2023/03/09 01:08:39;;;;;;;2.03;0.40;;;9.20;99.90;;;8.77;100.00;94954.81;4987281;28;20025;-40
2023/03/09 01:11:09;;;;;;;0.82;0.40;;;9.20;99.90;;;8.76;100.00;94962.81;4977180;28;20125;-42
2023/03/09 01:13:35;;;;;;;0.38;0.30;;;9.20;99.90;;;8.69;100.00;94966.78;4978112;28;20448;-42
2023/03/09 01:16:01;;;;;;;0.40;0.30;;;9.10;99.90;;;8.67;100.00;94958.16;4978815;28;20038;-40
2023/03/09 01:18:27;;;;;;;0.88;0.30;;;9.10;99.90;;;8.60;100.00;94963.00;4979588;28;20038;-39
2023/03/09 01:20:53;;;;;;;1.52;0.38;;;9.00;99.90;;;8.47;100.00;94936.72;4982258;28;20041;-40
2023/03/09 01:23:18;;;;;;;1.02;0.35;;;8.90;99.90;;;8.36;100.00;94932.19;4973561;28;20631;-39
2023/03/09 01:25:44;;;;;;;0.47;0.20;;;8.90;99.90;;;8.37;100.00;94939.09;4982556;28;20116;-41
2023/03/09 01:28:11;;;;;;;0.20;0.20;;;8.80;99.90;;;8.27;100.00;94929.31;4984932;28;20148;-42
2023/03/09 01:30:37;;;;;;;0.50;0.20;;;8.70;99.90;;;8.18;100.00;94951.78;4981532;28;20868;-40
2023/03/09 01:33:03;;;;;;;0.75;0.20;;;8.60;99.90;;;8.08;100.00;94950.72;4988294;28;20048;-40
2023/03/09 01:35:29;;;;;;;0.65;0.30;;;8.60;99.90;;;8.10;100.00;94944.41;4986233;28;20041;-40
2023/03/09 01:37:54;;;;;;;0.90;0.30;;;8.60;99.90;;;7.98;100.00;94964.41;4983480;28;20034;-39
2023/03/09 01:40:24;;;;;;;1.23;0.28;;;8.50;99.90;;;7.96;100.00;94970.72;5011112;22;20379;-40
2023/03/09 01:43:16;;;;;;;0.22;0.20;;;8.50;99.90;;;7.95;100.00;94974.28;4976359;28;20405;-40
2023/03/09 01:45:41;;;;;;;0.10;0.10;;;8.50;99.90;;;7.92;100.00;94954.34;4976259;28;20556;-40
2023/03/09 01:48:07;;;;;;;0.28;0.20;;;8.40;99.90;;;7.94;100.00;94951.63;4988838;28;20038;-40
2023/03/09 01:50:35;;;;;;;0.50;0.30;;;8.40;99.90;;;7.90;100.00;94944.91;4989609;28;20042;-40
2023/03/09 01:53:09;;;;;;;1.00;0.22;;;8.40;99.90;;;7.95;100.00;94942.78;4986988;28;20042;-40
2023/03/09 01:55:43;;;;;;;1.52;0.32;;;8.40;99.90;;;7.92;100.00;94969.25;4981555;28;20512;-40
2023/03/09 01:58:18;;;;;;;2.40;0.30;;;8.40;99.90;;;7.86;100.00;94974.88;4979721;28;20045;-40
2023/03/09 02:00:48;;;;;;;2.15;0.40;;;8.40;99.90;;;7.84;100.00;94972.34;4986233;28;20154;-40
2023/03/09 02:03:22;;;;;;;2.67;0.43;;;8.30;99.90;;;7.78;100.00;94972.75;4986984;28;20195;-40
2023/03/09 02:06:04;;;;;;;1.65;0.30;;;8.30;99.90;;;7.75;100.00;94960.69;4989471;28;20022;-40
2023/03/09 02:08:32;;;;;;;1.75;0.40;;;8.20;99.90;;;7.70;100.00;94949.66;4988696;28;20025;-40
2023/03/09 02:11:06;;;;;;;1.00;0.30;;;8.20;99.90;;;7.66;100.00;94942.91;4991773;28;20121;-40
2023/03/09 02:13:37;;;;;;;3.13;0.20;;;8.20;99.90;;;7.63;100.00;94943.13;4979610;28;20218;-40
2023/03/09 02:16:03;;;;;;;1.02;0.22;;;8.10;99.90;;;7.61;100.00;94935.34;4988765;28;20489;-40
2023/03/09 02:18:29;;;;;;;0.43;0.20;;;8.10;99.90;;;7.53;100.00;94931.53;4984497;28;20080;-40
2023/03/09 02:21:18;;;;;;;0.20;0.20;;;8.10;99.90;;;7.47;100.00;94937.19;4983879;28;20034;-40
2023/03/09 02:24:11;;;;;;;0.38;0.20;;;8.10;99.90;;;7.45;100.00;94938.09;4985117;28;20041;-40
2023/03/09 02:27:22;;;;;;;0.30;0.20;;;8.00;99.90;;;7.45;100.00;94943.34;4986141;28;20112;-40
2023/03/09 02:29:48;;;;;;;0.82;0.40;;;8.00;99.90;;;7.37;100.00;94958.72;4986007;28;20125;-40
2023/03/09 02:32:15;;;;;;;0.70;0.20;;;8.00;99.90;;;7.36;100.00;94954.44;4988604;28;20022;-40
2023/03/09 02:34:40;;;;;;;2.17;0.20;;;7.90;99.90;;;7.32;100.00;94952.94;4986056;28;20147;-40
2023/03/09 02:37:25;;;;;;;0.75;0.20;;;7.90;99.90;;;7.26;100.00;94950.69;4981483;28;20773;-40
2023/03/09 02:39:56;;;;;;;0.88;0.20;;;7.90;99.90;;;7.26;100.00;94948.91;4987817;28;20075;-40
2023/03/09 02:42:22;;;;;;;1.25;0.20;;;7.80;99.90;;;7.07;100.00;94911.72;4983886;28;20045;-41
2023/03/09 02:44:48;;;;;;;0.70;0.32;;;7.80;99.90;;;7.25;100.00;94941.16;4989119;28;20034;-40
2023/03/09 02:47:19;;;;;;;0.63;0.15;;;7.80;99.90;;;7.32;100.00;94931.97;4981262;28;20081;-40
2023/03/09 02:49:45;;;;;;;0.57;0.10;;;7.90;99.90;;;7.32;100.00;94959.94;4985165;28;20036;-40
2023/03/09 02:52:11;;;;;;;0.50;0.25;;;7.90;99.90;;;7.35;100.00;94967.63;4986338;28;20026;-40
2023/03/09 02:54:37;;;;;;;0.13;0.13;;;7.90;99.90;;;7.43;100.00;94968.84;4981567;28;20129;-40
2023/03/09 02:57:03;;;;;;;0.35;0.22;;;8.00;99.90;;;7.53;100.00;94984.81;4986940;28;20068;-40
2023/03/09 02:59:28;;;;;;;1.40;0.20;;;8.10;99.90;;;7.64;100.00;94990.25;4985020;28;20125;-41
2023/03/09 03:01:54;;;;;;;1.75;0.30;;;8.20;99.90;;;7.65;100.00;94999.78;4989759;28;20041;-40
2023/03/09 03:04:20;;;;;;;1.02;0.20;;;8.20;99.90;;;7.73;100.00;95004.53;4974367;28;20034;-40
2023/03/09 03:06:45;;;;;;;0.73;0.20;;;8.30;99.90;;;7.78;100.00;95012.94;4972602;28;20030;-40
2023/03/09 03:09:11;;;;;;;0.65;0.20;;;8.30;99.90;;;7.91;100.00;95012.16;4983140;28;20045;-40
2023/03/09 03:11:37;;;;;;;0.30;0.20;;;8.40;99.90;;;7.94;100.00;95035.59;4983196;28;20037;-40
2023/03/09 03:14:03;;;;;;;0.50;0.30;;;8.40;99.90;;;7.95;100.00;95048.63;4986018;28;20471;-40
2023/03/09 03:16:28;;;;;;;0.10;0.10;;;8.50;99.90;;;7.92;100.00;95056.69;4989825;28;20057;-41
2023/03/09 03:18:54;;;;;;;1.38;0.47;;;8.50;99.90;;;7.96;100.00;95070.44;4980528;28;20034;-41
2023/03/09 03:21:20;;;;;;;0.50;0.20;;;8.50;99.90;;;8.06;100.00;95095.19;4982776;28;20042;-40
2023/03/09 03:23:45;;;;;;;1.02;0.30;;;8.60;99.90;;;8.02;100.00;95102.41;4984331;28;20056;-40
2023/03/09 03:26:11;;;;;;;1.42;0.40;;;8.60;99.90;;;7.97;100.00;95108.88;4982382;28;20038;-40
2023/03/09 03:28:37;;;;;;;3.47;0.50;;;8.60;99.90;;;7.94;100.00;95127.44;4980030;28;20030;-40
2023/03/09 03:31:04;;;;;;;0.47;0.20;;;8.50;99.90;;;7.93;100.00;95146.75;4984522;28;20052;-40
2023/03/09 03:33:30;;;;;;;1.10;0.30;;;8.50;99.90;;;7.92;100.00;95147.69;4979515;28;22432;-41
2023/03/09 03:35:56;;;;;;;1.75;0.43;;;8.50;99.90;;;7.84;100.00;95158.66;4978751;28;20061;-41
2023/03/09 03:38:22;;;;;;;0.55;0.20;;;8.40;99.90;;;7.80;100.00;95147.50;4970825;28;20042;-41
2023/03/09 03:40:48;;;;;;;0.90;0.30;;;8.30;99.90;;;7.75;100.00;95156.59;4985750;28;20604;-41
2023/03/09 03:43:14;;;;;;;0.80;0.20;;;8.30;99.90;;;7.60;100.00;95153.97;4982431;28;20457;-40
2023/03/09 03:45:40;;;;;;;1.92;0.20;;;8.20;99.90;;;7.53;100.00;95152.66;4985279;28;20520;-41
2023/03/09 03:48:06;;;;;;;0.68;0.20;;;8.10;99.90;;;7.51;100.00;95151.09;4993004;28;20116;-40
2023/03/09 03:50:32;;;;;;;0.60;0.30;;;8.00;99.90;;;7.41;100.00;95159.50;4976514;28;20514;-40
2023/03/09 03:52:57;;;;;;;1.00;0.30;;;8.00;99.90;;;7.41;100.00;95175.25;4977537;28;20042;-40
2023/03/09 03:55:23;;;;;;;0.98;0.30;;;8.00;99.90;;;7.40;100.00;95168.28;4977907;28;20048;-40
2023/03/09 03:57:49;;;;;;;0.75;0.20;;;8.00;99.90;;;7.43;100.00;95183.84;4978650;28;20042;-40
2023/03/09 04:00:18;;;;;;;0.57;0.40;;;8.00;99.90;;;7.33;100.00;95185.31;4977334;28;20037;-40
2023/03/09 04:02:43;;;;;;;2.65;0.50;;;7.90;99.90;;;7.34;100.00;95202.75;4979405;28;20730;-41
2023/03/09 04:05:09;;;;;;;3.45;0.47;;;7.90;99.90;;;7.45;100.00;95181.97;4977316;28;20553;-40
2023/03/09 04:07:34;;;;;;;5.82;0.63;;;8.00;99.90;;;7.42;100.00;95195.25;4975775;28;20100;-41
2023/03/09 04:10:00;;;;;;;8.10;0.60;;;8.00;99.90;;;7.45;100.00;95207.38;4982899;28;20034;-40
2023/03/09 04:12:26;;;;;;;2.58;0.82;;;8.00;99.90;;;7.45;100.00;95210.81;4978645;28;20172;-40
2023/03/09 04:14:52;;;;;;;2.28;0.75;;;8.00;99.90;;;7.42;100.00;95197.88;4982070;28;20049;-40
2023/03/09 04:17:17;;;;;;;2.17;0.50;;;8.00;99.90;;;7.37;100.00;95202.56;4977907;28;20547;-40
2023/03/09 04:19:43;;;;;;;5.47;0.80;;;8.00;99.90;;;7.33;100.00;95222.03;4980505;28;20034;-40
2023/03/09 04:22:10;;;;;;;4.13;0.80;;;7.90;99.90;;;7.32;100.00;95233.47;4984561;28;20500;-40
2023/03/09 04:24:35;;;;;;;4.97;1.02;;;7.90;99.90;;;7.45;100.00;95238.84;4990491;28;20030;-40
2023/03/09 04:27:01;;;;;;;5.00;1.10;;;8.00;99.90;;;7.45;100.00;95242.28;4983771;28;20176;-40
2023/03/09 04:29:27;;;;;;;3.95;1.13;;;8.00;99.90;;;7.45;100.00;95251.94;4986688;28;20061;-40
2023/03/09 04:31:52;;;;;;;6.88;1.15;;;8.00;99.90;;;7.40;100.00;95252.22;4982603;28;20045;-40
2023/03/09 04:34:18;;;;;;;6.40;1.17;;;8.00;99.90;;;7.47;100.00;95265.81;4976352;28;20030;-40
2023/03/09 04:36:44;;;;;;;6.95;1.80;;;8.00;99.90;;;7.49;100.00;95278.84;4984930;28;20040;-40
2023/03/09 04:39:10;;;;;;;5.22;1.25;;;8.00;99.90;;;7.42;100.00;95294.91;4991214;28;20516;-40
2023/03/09 04:41:36;;;;;;;9.20;1.50;;;8.10;99.90;;;7.51;100.00;95313.69;4984178;28;20022;-40
2023/03/09 04:44:02;;;;;;;7.80;1.35;;;8.10;99.90;;;7.29;100.00;95291.31;4988468;28;20145;-40
2023/03/09 04:46:27;;;;;;;7.82;1.13;;;8.10;99.90;;;7.39;100.00;95308.22;4987036;28;20714;-40
2023/03/09 04:48:53;;;;;;;8.25;1.27;;;8.00;99.90;;;7.44;100.00;95321.88;4983837;28;20033;-40
2023/03/09 04:51:20;;;;;;;7.18;1.60;;;8.00;99.90;;;7.44;100.00;95342.88;4985696;28;20041;-40
2023/03/09 04:53:45;;;;;;;6.25;1.50;;;8.00;99.90;;;7.49;100.00;95341.78;4979002;28;20034;-41
2023/03/09 04:56:11;;;;;;;4.75;1.73;;;8.00;99.90;;;7.48;100.00;95353.19;4982557;28;20065;-39
2023/03/09 04:58:37;;;;;;;6.38;1.83;;;8.10;99.90;;;7.54;100.00;95339.75;4985233;28;20038;-40
2023/03/09 05:01:03;;;;;;;13.40;1.50;;;8.10;99.90;;;7.56;100.00;95357.06;4979226;28;20390;-40
2023/03/09 05:03:29;;;;;;;6.38;1.60;;;8.10;99.90;;;7.54;100.00;95356.31;4985937;28;20327;-40
2023/03/09 05:05:55;;;;;;;9.75;1.88;;;8.10;99.90;;;7.47;100.00;95354.97;4982666;28;20196;-40
2023/03/09 05:08:21;;;;;;;3.92;1.27;;;8.10;99.90;;;7.49;100.00;95370.63;4979132;28;20498;-40
2023/03/09 05:10:46;;;;;;;5.90;2.03;;;8.10;99.90;;;7.54;100.00;95372.06;4986989;28;20652;-40
2023/03/09 05:13:12;;;;;;;7.05;1.30;;;8.10;99.90;;;7.56;100.00;95379.84;4989883;28;20160;-40
2023/03/09 05:15:39;;;;;;;9.90;1.70;;;8.10;99.90;;;7.49;100.00;95381.13;4983145;28;20490;-40
2023/03/09 05:18:08;;;;;;;8.02;1.60;;;8.10;99.90;;;7.52;100.00;95399.28;4992283;28;20045;-40
2023/03/09 05:20:37;;;;;;;5.78;1.27;;;8.10;99.90;;;7.56;100.00;95408.69;4972509;28;20041;-40
2023/03/09 05:23:03;;;;;;;5.45;2.00;;;8.10;99.90;;;7.61;100.00;95401.41;4986766;28;20030;-40
2023/03/09 05:25:29;;;;;;;6.00;1.55;;;8.20;99.90;;;7.63;100.00;95407.41;4985112;28;20025;-40
2023/03/09 05:27:55;;;;;;;5.57;1.67;;;8.20;99.90;;;7.70;100.00;95403.50;4980286;28;20484;-40
2023/03/09 05:30:20;;;;;;;12.13;1.60;;;8.30;99.90;;;7.68;100.00;95405.38;4983822;28;20129;-40
2023/03/09 05:32:48;;;;;;;6.05;1.35;;;8.20;99.90;;;7.69;100.00;95414.06;4986305;28;20041;-40
2023/03/09 05:35:14;;;;;;;9.65;1.80;;;8.20;99.90;;;7.72;100.00;95413.91;4989472;28;20030;-40
2023/03/09 05:37:39;;;;;;;5.85;1.45;;;8.30;99.90;;;7.75;100.00;95414.56;4988089;28;20056;-40
2023/03/09 05:40:07;;;;;;;7.07;1.88;;;8.30;99.90;;;7.75;100.00;95424.22;4977881;28;20046;-40
2023/03/09 05:42:33;;;;;;;6.50;1.65;;;8.30;99.90;;;7.73;100.00;95426.06;4983627;28;20627;-40
2023/03/09 05:45:00;;;;;;;10.35;1.77;;;8.30;99.90;;;7.75;100.00;95445.19;4979969;28;20107;-40
2023/03/09 05:47:25;;;;;;;6.53;1.48;;;8.30;99.90;;;7.68;100.00;95447.34;4981395;28;20316;-40
2023/03/09 05:49:51;;;;;;;9.38;1.25;;;8.30;99.90;;;7.55;100.00;95417.47;4977231;28;20112;-40
2023/03/09 05:52:17;;;;;;;6.45;1.45;;;8.30;99.90;;;7.77;100.00;95459.06;4987588;28;20526;-40
2023/03/09 05:54:43;;;;;;;6.63;1.50;;;8.30;99.90;;;7.75;100.00;95461.81;4986404;28;20514;-40
2023/03/09 05:57:12;;;;;;;12.40;1.70;;;8.30;99.90;;;7.77;100.00;95465.19;4991526;28;20726;-40
2023/03/09 05:59:39;;;;;;;9.40;1.65;;;8.40;99.90;;;7.71;100.00;95470.75;4988648;28;20055;-40
2023/03/09 06:02:05;;;;;;;7.00;1.52;;;8.30;99.90;;;7.61;100.00;95464.38;4988433;28;20266;-40
2023/03/09 06:04:30;;;;;;;10.32;1.70;;;8.30;99.90;;;7.59;100.00;95467.06;4988740;28;20026;-40
2023/03/09 06:06:56;;;;;;;7.68;1.75;;;8.30;99.90;;;7.67;100.00;95477.13;4984584;28;20068;-40
2023/03/09 06:09:22;;;;;;;9.50;1.48;;;8.30;99.90;;;7.70;100.00;95484.84;4981566;28;20068;-40
2023/03/09 06:11:48;;;;;;;6.43;1.40;;;8.30;99.90;;;7.73;100.00;95492.50;4981171;28;20082;-40
2023/03/09 06:14:14;;;;;;;12.57;2.80;;;8.30;99.90;;;7.76;100.00;95491.50;4976085;28;20038;-40
2023/03/09 06:16:40;;;;;;;8.07;1.52;;;8.30;99.90;;;7.69;100.00;95492.78;4982504;28;20639;-40
2023/03/09 06:19:06;;;;;;;7.88;1.63;;;8.30;99.90;;;7.65;100.00;95499.97;4985620;28;20283;-40
2023/03/09 06:21:32;;;;;;;9.48;1.33;;;8.30;99.90;;;7.68;100.00;95507.69;4969042;28;20565;-40
2023/03/09 06:23:58;;;;;;;5.95;1.40;;;8.30;99.90;;;7.71;100.00;95504.88;4974035;28;20053;-40
2023/03/09 06:26:24;;;;;;;9.20;1.67;;;8.30;99.90;;;7.77;100.00;95501.06;4989466;28;20041;-40
2023/03/09 06:28:50;;;;;;;7.68;1.70;;;8.30;99.90;;;7.78;100.00;95500.97;4975393;28;20352;-40
2023/03/09 06:31:17;;;;;;;5.60;1.50;;;8.40;99.90;;;7.88;100.00;95500.44;4974557;28;20052;-40
2023/03/09 06:33:45;;;;;;;7.15;1.98;;;8.40;99.90;;;7.94;100.00;95508.00;4979851;28;20029;-40
2023/03/09 06:36:14;;;;;;;8.30;1.70;;;8.50;99.90;;;8.00;100.00;95516.38;4987623;28;20493;-40
2023/03/09 06:38:41;;;;;;;5.65;1.25;;;8.60;99.90;;;8.05;100.00;95521.34;4982771;28;20096;-40
2023/03/09 06:41:06;;;;;;;9.10;1.60;;;8.60;99.90;;;8.02;100.00;95509.25;4988883;28;20048;-40
2023/03/09 06:43:33;;;;;;;6.68;1.75;;;8.60;99.90;;;7.98;100.00;95505.09;5000139;28;20492;-40
2023/03/09 06:45:59;;;;;;;8.48;1.70;;;8.50;99.90;;;7.99;100.00;95517.28;4969685;28;20060;-40
2023/03/09 06:48:25;;;;;;;6.63;1.80;;;8.60;99.90;;;8.07;100.00;95521.25;4976100;28;20482;-40
2023/03/09 06:50:51;;;;;;;4.85;1.50;;;8.60;99.90;;;8.06;100.00;95512.53;4978752;28;20766;-40
2023/03/09 06:53:17;;;;;;;7.88;1.75;;;8.60;99.90;;;8.02;100.00;95513.63;4985973;28;20033;-40
2023/03/09 06:55:43;;;;;;;7.60;1.85;;;8.60;99.90;;;7.99;100.00;95524.31;4980138;28;20108;-40
2023/03/09 06:58:09;;;;;;;8.55;1.85;;;8.50;99.90;;;7.82;100.00;95510.38;4986156;28;20401;-40
2023/03/09 07:00:37;;;;;;;8.57;1.52;;;8.50;99.90;;;8.08;100.00;95550.06;4980305;28;20029;-40
2023/03/09 07:03:04;;;;;;;4.53;1.17;;;8.60;99.90;;;8.18;100.00;95548.59;4983739;28;23224;-40
2023/03/09 07:05:30;;;;;;;5.63;1.40;;;8.70;99.90;;;8.21;100.00;95550.19;4984323;28;20494;-40
2023/03/09 07:07:56;;;;;;;4.55;1.48;;;8.80;99.90;;;8.22;100.00;95549.28;4979803;28;20026;-40
2023/03/09 07:10:21;;;;;;;4.63;1.00;;;8.70;99.90;;;8.29;100.00;95565.50;4983963;28;20581;-40
2023/03/09 07:12:48;;;;;;;5.50;1.40;;;8.80;99.90;;;8.40;100.00;95552.63;4977673;28;20030;-40
2023/03/09 07:15:14;;;;;;;8.65;1.70;;;8.90;99.90;;;8.58;100.00;95569.13;4983685;28;20162;-40
2023/03/09 07:17:42;;;;;;;7.88;1.70;;;9.00;99.90;;;8.73;100.00;95568.22;4978347;28;20038;-41
2023/03/09 07:20:10;;;;;;;7.10;1.55;;;9.20;99.90;;;8.95;100.00;95575.69;4986324;28;20038;-40
2023/03/09 07:22:35;;;;;;;5.03;1.77;;;9.40;99.90;;;9.22;100.00;95580.22;4976032;28;20189;-41
2023/03/09 07:25:01;;;;;;;4.03;1.35;;;9.70;99.90;;;9.44;100.00;95581.53;4983040;28;20034;-40
2023/03/09 07:27:27;;;;;;;5.80;1.38;;;9.90;99.90;;;9.48;100.00;95572.53;4990192;28;20060;-40
2023/03/09 07:29:53;;;;;;;7.15;1.92;;;10.00;99.90;;;9.44;100.00;95579.78;4980727;28;20392;-40
2023/03/09 07:32:19;;;;;;;5.57;1.23;;;9.90;99.90;;;9.34;100.00;95578.63;4979744;28;20367;-40
2023/03/09 07:34:44;;;;;;;4.65;1.33;;;9.90;99.90;;;9.21;100.00;95575.06;4977427;28;21435;-40
2023/03/09 07:37:11;;;;;;;5.35;1.73;;;9.80;99.90;;;9.28;100.00;95600.06;4979867;28;20053;-40
2023/03/09 07:39:36;;;;;;;12.88;3.92;;;9.80;99.90;;;9.31;100.00;95582.31;5009442;22;20287;-51
2023/03/09 07:42:02;;;;;;;8.10;1.90;;;9.90;99.90;;;9.60;100.00;95603.34;4981142;28;20041;-53
2023/03/09 07:44:29;;;;;;;8.35;1.42;;;10.10;99.90;;;9.72;100.00;95597.31;5006044;28;20059;-51
2023/03/09 07:46:55;;;;;;;6.43;1.40;;;10.20;99.90;;;9.80;100.00;95606.50;5007287;28;20035;-50
2023/03/09 07:49:21;;;;;;;4.07;1.23;;;10.30;99.90;;;9.89;100.00;95601.53;5006402;28;20627;-49
2023/03/09 07:51:47;;;;;;;8.93;1.27;;;10.40;99.90;;;9.99;100.00;95614.94;4985433;28;20026;-51
2023/03/09 07:54:12;;;;;;;6.97;1.38;;;10.50;99.90;;;10.17;100.00;95612.09;4991147;28;20041;-48
2023/03/09 07:56:38;;;;;;;7.10;1.20;;;10.70;99.90;;;10.43;100.00;95618.38;4990172;28;20489;-50
2023/03/09 07:59:04;;;;;;;4.40;1.40;;;11.00;99.90;;;10.69;100.00;95619.28;4984717;28;20061;-50
2023/03/09 08:01:30;;;;;;;5.40;1.50;;;11.20;99.90;;;10.73;100.00;95626.06;4984476;28;20116;-51
2023/03/09 08:03:56;;;;;;;3.67;0.93;;;11.30;99.90;;;10.77;100.00;95622.28;4978379;28;20070;-51
2023/03/09 08:06:21;;;;;;;8.60;1.50;;;11.40;99.90;;;10.84;100.00;95623.56;4992033;28;20397;-53
2023/03/09 08:08:47;;;;;;;5.03;1.08;;;11.50;99.90;;;10.86;100.00;95610.28;4987718;28;20088;-50
2023/03/09 08:11:13;;;;;;;5.05;1.10;;;11.50;99.90;;;10.87;100.00;95646.22;4993136;28;20029;-53
2023/03/09 08:13:39;;;;;;;5.97;1.17;;;11.40;99.90;;;10.78;100.00;95650.31;4990119;28;20030;-53
2023/03/09 08:16:08;;;;;;;6.90;1.40;;;11.40;99.90;;;10.74;100.00;95648.84;4986906;28;20065;-53
2023/03/09 08:18:34;;;;;;;8.52;1.50;;;11.30;99.90;;;10.72;100.00;95657.81;4989761;28;20116;-55
2023/03/09 08:21:10;;;;;;;4.35;1.05;;;11.30;99.90;;;11.00;100.00;95654.16;4985010;28;20056;-52
2023/03/09 08:23:39;;;;;;;1.90;0.70;;;11.60;99.90;;;11.20;100.00;95661.63;4985651;28;20076;-52
2023/03/09 08:26:08;;;;;;;4.15;1.50;;;11.80;99.90;;;11.20;100.00;95666.91;4988279;28;20030;-53
2023/03/09 08:28:34;;;;;;;4.15;1.10;;;11.80;99.90;;;10.96;100.00;95653.53;4984232;28;20040;-50
2023/03/09 08:31:00;;;;;;;6.05;1.02;;;11.80;99.90;;;10.94;100.00;95670.41;4982689;28;20038;-52
2023/03/09 08:33:26;;;;;;;6.60;1.17;;;11.70;99.90;;;10.93;100.00;95681.91;4987987;28;20042;-51
2023/03/09 08:35:51;;;;;;;7.13;1.45;;;11.60;99.90;;;10.91;100.00;95675.88;4987945;28;20088;-55
2023/03/09 08:38:17;;;;;;;3.40;0.90;;;11.50;99.90;;;10.97;100.00;95688.69;4985093;28;20042;-54
2023/03/09 08:40:43;;;;;;;5.47;1.08;;;11.60;99.90;;;11.08;100.00;95688.81;4990257;28;20041;-51
2023/03/09 08:43:09;;;;;;;4.05;0.82;;;11.70;99.90;;;11.15;100.00;95698.00;4986128;28;20026;-51
2023/03/09 08:45:37;;;;;;;5.53;1.20;;;11.70;99.90;;;11.15;100.00;95703.28;4988257;28;20091;-50
2023/03/09 08:48:03;;;;;;;6.65;1.10;;;11.70;99.90;;;11.25;100.00;95711.41;4991854;28;20195;-52
2023/03/09 08:50:29;;;;;;;4.97;1.23;;;11.80;99.90;;;11.24;100.00;95702.66;4989387;28;20478;-53
2023/03/09 08:52:55;;;;;;;3.10;1.10;;;11.90;99.90;;;11.15;100.00;95727.03;4986912;28;20038;-49
2023/03/09 08:55:21;;;;;;;7.75;1.20;;;11.80;99.90;;;11.10;100.00;95710.66;4984415;28;20026;-49
2023/03/09 08:57:47;;;;;;;8.73;1.23;;;11.80;99.90;;;11.30;100.00;95714.59;4987290;28;20437;-51
2023/03/09 09:00:13;;;;;;;3.70;0.73;;;11.90;99.90;;;11.46;100.00;95731.09;4986380;28;20037;-54
2023/03/09 09:02:39;;;;;;;8.35;1.20;;;12.10;99.90;;;11.51;100.00;95722.06;4983224;28;20030;-51
2023/03/09 09:05:06;;;;;;;2.95;0.80;;;12.30;99.90;;;11.69;100.00;95746.34;4986524;28;20033;-52
2023/03/09 09:07:31;;;;;;;5.40;0.90;;;12.40;99.90;;;11.68;100.00;95755.22;4988942;28;20466;-51
2023/03/09 09:09:58;;;;;;;4.75;1.00;;;12.40;99.90;;;11.50;100.00;95763.41;4986129;28;20038;-51
2023/03/09 09:12:25;;;;;;;4.40;0.90;;;12.20;99.90;;;11.42;100.00;95778.94;4991915;28;20037;-53
2023/03/09 09:14:51;;;;;;;3.38;0.77;;;12.10;99.90;;;11.05;100.00;95781.31;4976797;28;20037;-49
2023/03/09 09:17:17;;;;;;;3.03;0.80;;;11.80;99.90;;;10.81;100.00;95794.31;4985239;28;20034;-49
2023/03/09 09:19:44;;;;;;;4.40;1.10;;;11.60;99.90;;;10.46;100.00;95785.03;4985512;28;20046;-50
2023/03/09 09:22:10;;;;;;;3.78;0.60;;;11.30;99.90;;;10.22;100.00;95789.16;4985274;28;20042;-52
2023/03/09 09:24:37;;;;;;;2.85;0.93;;;11.00;99.90;;;10.17;100.00;95780.69;4988822;28;20032;-52
2023/03/09 09:27:07;;;;;;;3.42;0.90;;;10.70;99.90;;;10.09;100.00;95789.06;4988943;28;20038;-50
2023/03/09 09:29:34;;;;;;;2.40;0.65;;;10.70;99.90;;;10.21;100.00;95785.69;4992418;28;20038;-49
2023/03/09 09:32:01;;;;;;;5.63;0.82;;;10.80;99.90;;;10.41;100.00;95794.16;4981860;28;20460;-48
2023/03/09 09:34:31;;;;;;;3.50;0.70;;;11.00;99.90;;;10.61;100.00;95788.50;4980851;28;20208;-51
2023/03/09 09:37:01;;;;;;;3.03;0.98;;;11.20;99.90;;;10.82;100.00;95798.63;4982506;28;20796;-48
2023/03/09 09:39:32;;;;;;;4.07;1.00;;;11.40;99.90;;;11.13;100.00;95797.53;4978464;28;20096;-50
2023/03/09 09:42:03;;;;;;;3.05;0.88;;;11.70;99.90;;;11.39;100.00;95805.53;4986142;28;20468;-52
2023/03/09 09:44:34;;;;;;;3.92;1.35;;;12.00;99.90;;;11.64;100.00;95810.03;4998663;28;20879;-52
2023/03/09 09:47:04;;;;;;;3.58;0.77;;;12.20;99.90;;;11.73;100.00;95793.56;4982520;28;20029;-50
2023/03/09 09:49:43;;;;;;;5.13;0.93;;;12.40;99.90;;;11.78;100.00;95804.66;4975752;28;20402;-52
2023/03/09 09:52:28;;;;;;;3.83;0.82;;;12.40;99.90;;;11.88;100.00;95815.47;4980933;28;20061;-53
2023/03/09 09:55:03;;;;;;;4.28;1.00;;;12.50;99.90;;;11.82;100.00;95829.91;4974909;28;20093;-50
2023/03/09 09:57:44;;;;;;;5.88;1.17;;;12.50;99.90;;;11.75;100.00;95823.34;4985981;28;20397;-51
2023/03/09 10:00:20;;;;;;;6.50;1.40;;;12.50;99.90;;;11.75;100.00;95831.28;4989053;28;20116;-50
2023/03/09 10:03:23;;;;;;;4.72;1.13;;;12.40;99.90;;;11.70;100.00;95836.03;4984712;28;20197;-50
2023/03/09 10:06:17;;;;;;;4.43;1.00;;;12.40;99.90;;;11.92;100.00;95830.19;5004953;28;20149;-49
2023/03/09 10:08:55;;;;;;;4.97;0.90;;;12.50;99.90;;;12.12;100.00;95834.13;4985927;28;20029;-50
2023/03/09 10:11:36;;;;;;;2.22;0.70;;;12.70;99.90;;;12.21;100.00;95840.56;4989299;28;20030;-53
2023/03/09 10:14:27;;;;;;;7.15;1.05;;;12.80;99.90;;;12.26;100.00;95842.88;4990623;28;20056;-51
2023/03/09 10:17:14;;;;;;;3.20;1.20;;;12.90;99.90;;;12.23;100.00;95841.31;4974467;28;20592;-53
2023/03/09 10:19:41;;;;;;;5.10;1.00;;;12.90;99.90;;;12.10;100.00;95848.41;4985181;28;20044;-51
2023/03/09 10:22:13;;;;;;;2.28;1.00;;;12.90;99.90;;;12.12;100.00;95859.72;4991414;28;20535;-51
2023/03/09 10:24:43;;;;;;;6.20;0.90;;;12.90;99.90;;;12.15;100.00;95848.91;4981879;28;20028;-48
2023/03/09 10:27:26;;;;;;;4.30;0.80;;;12.90;99.90;;;12.38;100.00;95856.13;4985705;28;20116;-50